Time;durP1;ratioP1;P1;durP2;ratioP2;P2;SDS_P1;SDS_P2;PMS_P1;PMS_P2;Temp;Humidity;BMP_temperature;BMP_pressure;BME280_temperature;BME280_humidity;BME280_pressure;Samples;Min_cycle;Max_cycle;Signal;HPM_P1;HPM_P2
2022/05/18 00:01:46;;;;;;;;;;;11.70;99.90;;;;;;5071340;28;19909;-72
2022/05/18 00:04:11;;;;;;;;;;;11.50;99.90;;;;;;5071905;28;19908;-72
2022/05/18 00:06:36;;;;;;;;;;;11.50;99.90;;;;;;5072097;28;20376;-73
2022/05/18 00:09:02;;;;;;;;;;;11.50;99.90;;;;;;5072384;28;19908;-73
2022/05/18 00:11:28;;;;;;;;;;;11.50;99.90;;;;;;5070477;28;20350;-73
2022/05/18 00:13:54;;;;;;;;;;;11.50;99.90;;;;;;5052012;28;19982;-73
2022/05/18 00:16:20;;;;;;;;;;;11.50;99.90;;;;;;5052961;28;20373;-72
2022/05/18 00:18:46;;;;;;;;;;;11.30;99.90;;;;;;5052947;28;19920;-72
2022/05/18 00:21:12;;;;;;;;;;;11.30;99.90;;;;;;5052436;28;19909;-73
2022/05/18 00:23:37;;;;;;;;;;;11.30;99.90;;;;;;5052417;28;20011;-73
2022/05/18 00:26:03;;;;;;;;;;;11.30;99.90;;;;;;5053233;28;19963;-72
2022/05/18 00:28:29;;;;;;;;;;;11.20;99.90;;;;;;5053278;28;20328;-72
2022/05/18 00:30:56;;;;;;;;;;;11.10;99.90;;;;;;5053017;28;19943;-72
2022/05/18 00:33:21;;;;;;;;;;;11.10;99.90;;;;;;5052005;28;20297;-73
2022/05/18 00:35:47;;;;;;;;;;;11.10;99.90;;;;;;5052720;28;19919;-73
2022/05/18 00:38:13;;;;;;;;;;;11.10;99.90;;;;;;5052397;28;19921;-72
2022/05/18 00:40:39;;;;;;;;;;;11.10;99.90;;;;;;5052449;28;19996;-72
2022/05/18 00:43:05;;;;;;;;;;;11.10;99.90;;;;;;5051450;28;20387;-72
2022/05/18 00:45:30;;;;;;;;;;;11.10;99.90;;;;;;5054793;28;19908;-72
2022/05/18 00:47:56;;;;;;;;;;;11.10;99.90;;;;;;5052471;28;19919;-73
2022/05/18 00:50:24;;;;;;;;;;;11.10;99.90;;;;;;5052326;28;19916;-72
2022/05/18 00:53:04;;;;;;;;;;;11.10;99.90;;;;;;5051715;28;20277;-73
2022/05/18 00:55:32;;;;;;;;;;;11.10;99.90;;;;;;5047964;28;19915;-72
2022/05/18 00:58:04;;;;;;;;;;;11.00;99.90;;;;;;5052285;28;20016;-72
2022/05/18 01:00:29;;;;;;;;;;;11.00;99.90;;;;;;5052257;28;19909;-73
2022/05/18 01:02:57;;;;;;;;;;;11.00;99.90;;;;;;5051947;28;19916;-73
2022/05/18 01:05:25;;;;;;;;;;;10.90;99.90;;;;;;5051791;28;19964;-72
2022/05/18 01:07:53;;;;;;;;;;;11.00;99.90;;;;;;5051709;28;19948;-72
2022/05/18 01:10:18;;;;;;;;;;;11.20;99.90;;;;;;5052103;28;19913;-73
2022/05/18 01:12:45;;;;;;;;;;;11.20;99.90;;;;;;5052967;28;19909;-72
2022/05/18 01:15:13;;;;;;;;;;;11.20;99.90;;;;;;5060081;28;20389;-73
2022/05/18 01:17:40;;;;;;;;;;;11.00;99.90;;;;;;5051906;28;19913;-73
2022/05/18 01:20:08;;;;;;;;;;;11.00;99.90;;;;;;5051946;28;19944;-72
2022/05/18 01:22:50;;;;;;;;;;;10.80;99.90;;;;;;5050907;28;19913;-72
2022/05/18 01:25:34;;;;;;;;;;;10.80;99.90;;;;;;5051518;28;19909;-73
2022/05/18 01:28:00;;;;;;;;;;;10.70;99.90;;;;;;5070890;28;19908;-72
2022/05/18 01:30:27;;;;;;;;;;;10.60;99.90;;;;;;5070842;28;20030;-72
2022/05/18 01:32:53;;;;;;;;;;;10.60;99.90;;;;;;5070228;28;19909;-73
2022/05/18 01:35:20;;;;;;;;;;;10.60;99.90;;;;;;5070514;28;19916;-73
2022/05/18 01:37:46;;;;;;;;;;;10.60;99.90;;;;;;5070510;28;19912;-72
2022/05/18 01:40:23;;;;;;;;;;;10.50;99.90;;;;;;5070890;28;19908;-72
2022/05/18 01:43:04;;;;;;;;;;;10.40;99.90;;;;;;5059732;28;19956;-73
2022/05/18 01:45:30;;;;;;;;;;;10.50;99.90;;;;;;5051184;28;19936;-72
2022/05/18 01:48:06;;;;;;;;;;;10.40;99.90;;;;;;5066457;28;20373;-73
2022/05/18 01:50:31;;;;;;;;;;;10.40;99.90;;;;;;5070680;28;19916;-73
2022/05/18 01:52:56;;;;;;;;;;;10.40;99.90;;;;;;5066902;28;19915;-73
2022/05/18 01:55:23;;;;;;;;;;;10.40;99.90;;;;;;5050714;28;19912;-72
2022/05/18 01:57:48;;;;;;;;;;;10.40;99.90;;;;;;5051196;28;20344;-72
2022/05/18 02:00:15;;;;;;;;;;;10.30;99.90;;;;;;5051377;28;19959;-73
2022/05/18 02:02:41;;;;;;;;;;;10.20;99.90;;;;;;5050923;28;19915;-72
2022/05/18 02:05:07;;;;;;;;;;;10.20;99.90;;;;;;5050828;28;20318;-73
2022/05/18 02:07:33;;;;;;;;;;;10.20;99.90;;;;;;5050958;28;20374;-73
2022/05/18 02:09:58;;;;;;;;;;;10.20;99.90;;;;;;5051385;28;19916;-72
2022/05/18 02:12:24;;;;;;;;;;;10.20;99.90;;;;;;5050305;28;20332;-73
2022/05/18 02:14:49;;;;;;;;;;;10.10;99.90;;;;;;5050313;28;19912;-72
2022/05/18 02:17:15;;;;;;;;;;;10.10;99.90;;;;;;5051167;28;19920;-73
2022/05/18 02:19:40;;;;;;;;;;;10.10;99.90;;;;;;5051230;28;19978;-73
2022/05/18 02:22:06;;;;;;;;;;;10.10;99.90;;;;;;5050464;28;19913;-73
2022/05/18 02:24:31;;;;;;;;;;;10.10;99.90;;;;;;5050640;28;20293;-73
2022/05/18 02:26:57;;;;;;;;;;;10.20;99.90;;;;;;5054777;28;19913;-73
2022/05/18 02:29:22;;;;;;;;;;;10.10;99.90;;;;;;5054958;28;19963;-73
2022/05/18 02:31:48;;;;;;;;;;;10.10;99.90;;;;;;5054442;28;19909;-73
2022/05/18 02:34:14;;;;;;;;;;;10.10;99.90;;;;;;5054299;28;20017;-73
2022/05/18 02:36:39;;;;;;;;;;;10.10;99.90;;;;;;5054656;28;19996;-73
2022/05/18 02:39:05;;;;;;;;;;;10.10;99.90;;;;;;5054767;28;19971;-73
2022/05/18 02:41:30;;;;;;;;;;;10.10;99.90;;;;;;5054334;28;19916;-73
2022/05/18 02:43:58;;;;;;;;;;;9.90;99.90;;;;;;5052301;28;19920;-73
2022/05/18 02:46:23;;;;;;;;;;;9.90;99.90;;;;;;5054585;28;19909;-76
2022/05/18 02:48:51;;;;;;;;;;;9.90;99.90;;;;;;5054505;28;19913;-74
2022/05/18 02:51:17;;;;;;;;;;;9.90;99.90;;;;;;5054094;28;19909;-76
2022/05/18 02:53:42;;;;;;;;;;;10.00;99.90;;;;;;5053629;28;20291;-73
2022/05/18 02:56:09;;;;;;;;;;;9.90;99.90;;;;;;5054297;28;19912;-75
2022/05/18 02:58:39;;;;;;;;;;;9.90;99.90;;;;;;5054342;28;19913;-73
2022/05/18 03:01:06;;;;;;;;;;;10.00;99.90;;;;;;5054382;28;19986;-73
2022/05/18 03:03:32;;;;;;;;;;;10.00;99.90;;;;;;5053460;28;19916;-75
2022/05/18 03:05:57;;;;;;;;;;;9.90;99.90;;;;;;5054676;28;19909;-73
2022/05/18 03:08:23;;;;;;;;;;;10.00;99.90;;;;;;5053773;28;19917;-73
2022/05/18 03:10:48;;;;;;;;;;;9.90;99.90;;;;;;5054773;28;20007;-76
2022/05/18 03:13:13;;;;;;;;;;;9.90;99.90;;;;;;5054147;28;20003;-74
2022/05/18 03:15:39;;;;;;;;;;;10.00;99.90;;;;;;5053917;28;19909;-73
2022/05/18 03:18:04;;;;;;;;;;;10.00;99.90;;;;;;5053891;28;19923;-73
2022/05/18 03:25:59;;;;;;;;;;;9.80;99.90;;;;;;5055181;28;19916;-75
2022/05/18 03:28:24;;;;;;;;;;;9.70;99.90;;;;;;5053997;28;19928;-75
2022/05/18 03:30:50;;;;;;;;;;;9.70;99.90;;;;;;5053977;28;20366;-73
2022/05/18 03:33:15;;;;;;;;;;;9.80;99.90;;;;;;5052964;28;20376;-73
2022/05/18 03:35:41;;;;;;;;;;;9.80;99.90;;;;;;5072789;28;19909;-74
2022/05/18 03:38:06;;;;;;;;;;;9.60;99.90;;;;;;5071676;28;19966;-73
2022/05/18 03:40:35;;;;;;;;;;;9.60;99.90;;;;;;5072963;28;19908;-73
2022/05/18 03:43:00;;;;;;;;;;;9.70;99.90;;;;;;5064832;28;19908;-73
2022/05/18 03:45:26;;;;;;;;;;;9.70;99.90;;;;;;5053111;28;19963;-73
2022/05/18 03:47:51;;;;;;;;;;;9.70;99.90;;;;;;5053638;28;19909;-73
2022/05/18 03:50:17;;;;;;;;;;;9.70;99.90;;;;;;5053386;28;19917;-75
2022/05/18 03:52:43;;;;;;;;;;;9.70;99.90;;;;;;5052847;28;19947;-75
2022/05/18 03:55:09;;;;;;;;;;;9.60;99.90;;;;;;5053054;28;19924;-73
2022/05/18 03:57:34;;;;;;;;;;;9.70;99.90;;;;;;5053396;28;19916;-73
2022/05/18 04:00:00;;;;;;;;;;;9.70;99.90;;;;;;5053368;28;19909;-73
2022/05/18 04:02:25;;;;;;;;;;;9.70;99.90;;;;;;5053279;28;19916;-74
2022/05/18 04:04:51;;;;;;;;;;;9.80;99.90;;;;;;5053158;28;19909;-73
2022/05/18 04:07:16;;;;;;;;;;;9.80;99.90;;;;;;5069471;28;19919;-74
2022/05/18 04:09:41;;;;;;;;;;;9.80;99.90;;;;;;5072388;28;20328;-73
2022/05/18 04:12:08;;;;;;;;;;;9.70;99.90;;;;;;5064947;28;19916;-73
2022/05/18 04:14:33;;;;;;;;;;;9.70;99.90;;;;;;5052345;28;19909;-75
2022/05/18 04:16:59;;;;;;;;;;;9.90;99.90;;;;;;5052716;28;20027;-73
2022/05/18 04:19:24;;;;;;;;;;;10.00;99.90;;;;;;5052966;28;19959;-73
2022/05/18 04:21:50;;;;;;;;;;;10.10;99.90;;;;;;5052676;28;19909;-73
2022/05/18 04:24:15;;;;;;;;;;;10.10;99.90;;;;;;5053034;28;19962;-73
2022/05/18 04:26:41;;;;;;;;;;;10.20;99.90;;;;;;5053298;28;20379;-73
2022/05/18 04:29:06;;;;;;;;;;;10.20;99.90;;;;;;5053257;28;19909;-74
2022/05/18 04:31:32;;;;;;;;;;;10.20;99.90;;;;;;5052889;28;20443;-75
2022/05/18 04:33:57;;;;;;;;;;;10.30;99.90;;;;;;5052267;28;20408;-73
2022/05/18 04:36:23;;;;;;;;;;;10.40;99.90;;;;;;5052998;28;19916;-73
2022/05/18 04:38:48;;;;;;;;;;;10.50;99.90;;;;;;5052432;28;19920;-75
2022/05/18 04:41:13;;;;;;;;;;;10.50;99.90;;;;;;5052271;28;20325;-75
2022/05/18 04:43:39;;;;;;;;;;;10.50;99.90;;;;;;5051956;28;19955;-73
2022/05/18 04:46:06;;;;;;;;;;;10.70;99.90;;;;;;5052665;28;19962;-73
2022/05/18 04:48:32;;;;;;;;;;;10.80;99.90;;;;;;5071534;28;19919;-73
2022/05/18 04:50:57;;;;;;;;;;;10.90;99.90;;;;;;5072180;28;19999;-73
2022/05/18 04:53:23;;;;;;;;;;;11.10;99.90;;;;;;5070822;28;19930;-73
2022/05/18 04:55:49;;;;;;;;;;;11.20;99.90;;;;;;5072145;28;19909;-74
2022/05/18 04:58:15;;;;;;;;;;;11.20;99.90;;;;;;5072055;28;20369;-74
2022/05/18 05:00:42;;;;;;;;;;;11.30;99.90;;;;;;5071350;28;19909;-76
2022/05/18 05:03:08;;;;;;;;;;;11.40;99.90;;;;;;5070222;28;20010;-73
2022/05/18 05:05:33;;;;;;;;;;;11.50;99.90;;;;;;5071248;28;19912;-73
2022/05/18 05:07:59;;;;;;;;;;;11.60;99.90;;;;;;5071033;28;19916;-74
2022/05/18 05:10:25;;;;;;;;;;;11.60;99.90;;;;;;5071250;28;19912;-75
2022/05/18 05:12:50;;;;;;;;;;;11.80;99.90;;;;;;5058202;28;20531;-73
2022/05/18 05:15:16;;;;;;;;;;;11.90;99.90;;;;;;5051606;28;20057;-73
2022/05/18 05:17:41;;;;;;;;;;;12.10;99.90;;;;;;5051883;28;19913;-73
2022/05/18 05:20:08;;;;;;;;;;;12.20;99.90;;;;;;5051845;28;19920;-75
2022/05/18 05:22:33;;;;;;;;;;;12.30;99.90;;;;;;5051090;28;20432;-72
2022/05/18 05:24:59;;;;;;;;;;;12.50;99.90;;;;;;5051325;28;20003;-72
2022/05/18 05:27:24;;;;;;;;;;;12.60;99.90;;;;;;5051651;28;19924;-72
2022/05/18 05:29:49;;;;;;;;;;;12.80;99.90;;;;;;5052025;28;19922;-72
2022/05/18 05:32:15;;;;;;;;;;;13.00;99.90;;;;;;5051301;28;19999;-72
2022/05/18 05:34:41;;;;;;;;;;;13.60;99.90;;;;;;5051339;28;19920;-72
2022/05/18 05:37:06;;;;;;;;;;;13.70;99.90;;;;;;5051485;28;19909;-73
2022/05/18 05:39:32;;;;;;;;;;;13.80;99.90;;;;;;5051680;28;19916;-73
2022/05/18 05:41:58;;;;;;;;;;;14.40;99.90;;;;;;5051140;28;19909;-74
2022/05/18 05:44:23;;;;;;;;;;;15.70;99.90;;;;;;5056890;28;20320;-73
2022/05/18 05:46:50;;;;;;;;;;;15.90;99.90;;;;;;5050981;28;19935;-72
2022/05/18 05:49:16;;;;;;;;;;;15.40;99.90;;;;;;5051870;28;19939;-75
2022/05/18 05:51:41;;;;;;;;;;;14.70;99.90;;;;;;5050273;28;20309;-72
2022/05/18 05:54:08;;;;;;;;;;;14.40;99.90;;;;;;5057767;28;20422;-73
2022/05/18 05:56:35;;;;;;;;;;;14.60;99.90;;;;;;5071406;28;19995;-72
2022/05/18 05:59:00;;;;;;;;;;;14.80;99.90;;;;;;5071232;28;19919;-73
2022/05/18 06:01:26;;;;;;;;;;;14.70;99.90;;;;;;5073651;28;19909;-72
2022/05/18 06:03:51;;;;;;;;;;;14.70;99.90;;;;;;5074090;28;19913;-72
2022/05/18 06:06:19;;;;;;;;;;;14.80;99.90;;;;;;5075092;28;20007;-72
2022/05/18 06:08:45;;;;;;;;;;;15.10;99.90;;;;;;5075049;28;19963;-75
2022/05/18 06:11:11;;;;;;;;;;;15.30;99.90;;;;;;5074949;28;20309;-75
2022/05/18 06:13:37;;;;;;;;;;;15.40;99.90;;;;;;5054896;28;19909;-76
2022/05/18 06:16:03;;;;;;;;;;;16.30;99.90;;;;;;5055542;28;19916;-75
2022/05/18 06:18:30;;;;;;;;;;;18.00;99.90;;;;;;5055156;28;19970;-74
2022/05/18 06:20:55;;;;;;;;;;;19.20;99.90;;;;;;5073656;28;19912;-73
2022/05/18 06:23:21;;;;;;;;;;;18.70;99.90;;;;;;5073633;28;19916;-75
2022/05/18 06:25:49;;;;;;;;;;;17.80;99.90;;;;;;5056002;28;19912;-73
2022/05/18 06:28:14;;;;;;;;;;;17.20;99.90;;;;;;5054905;28;20107;-73
2022/05/18 06:30:41;;;;;;;;;;;17.10;99.90;;;;;;5055052;28;19908;-72
2022/05/18 06:33:06;;;;;;;;;;;17.10;99.90;;;;;;5053916;28;19909;-72
2022/05/18 06:35:32;;;;;;;;;;;17.10;99.90;;;;;;5055122;28;19913;-72
2022/05/18 06:37:58;;;;;;;;;;;17.20;99.90;;;;;;5054701;28;19920;-72
2022/05/18 06:41:21;;;;;;;;;;;17.20;99.90;;;;;;5054873;28;20357;-72
2022/05/18 06:43:09;;;;;;;;;;;17.50;99.90;;;;;;5057672;28;20277;-73
2022/05/18 06:45:35;;;;;;;;;;;17.80;99.90;;;;;;5054484;28;20000;-72
2022/05/18 06:48:01;;;;;;;;;;;18.50;99.90;;;;;;5055034;28;19909;-72
2022/05/18 06:50:26;;;;;;;;;;;20.00;99.90;;;;;;5060468;28;19917;-72
2022/05/18 06:52:52;;;;;;;;;;;21.30;99.90;;;;;;5072776;28;19916;-72
2022/05/18 06:55:17;;;;;;;;;;;21.70;97.90;;;;;;5071040;28;19908;-74
2022/05/18 06:57:42;;;;;;;;;;;22.00;96.40;;;;;;5073227;28;19922;-72
2022/05/18 07:00:08;;;;;;;;;;;22.30;95.50;;;;;;5072207;28;19913;-73
2022/05/18 07:02:34;;;;;;;;;;;22.60;94.80;;;;;;5072942;28;20003;-72
2022/05/18 07:05:00;;;;;;;;;;;22.50;95.90;;;;;;5072860;28;19936;-75
2022/05/18 07:07:25;;;;;;;;;;;23.30;93.90;;;;;;5072967;28;20367;-75
2022/05/18 07:09:51;;;;;;;;;;;23.50;90.70;;;;;;5073334;28;19915;-72
2022/05/18 07:12:16;;;;;;;;;;;22.80;94.40;;;;;;5063365;28;19909;-73
2022/05/18 07:14:42;;;;;;;;;;;23.10;95.30;;;;;;5054733;28;19959;-74
2022/05/18 07:17:07;;;;;;;;;;;23.60;92.60;;;;;;5055028;28;19909;-73
2022/05/18 07:19:33;;;;;;;;;;;24.00;94.20;;;;;;5054278;28;19999;-73
2022/05/18 07:21:58;;;;;;;;;;;24.60;93.00;;;;;;5054692;28;19916;-73
2022/05/18 07:24:24;;;;;;;;;;;24.50;92.50;;;;;;5053961;28;19912;-74
2022/05/18 07:26:49;;;;;;;;;;;24.20;92.90;;;;;;5068449;28;20067;-73
2022/05/18 07:29:15;;;;;;;;;;;24.20;93.80;;;;;;5054902;28;19999;-72
2022/05/18 07:34:24;;;;;;;;;;;24.40;91.10;;;;;;5056218;28;19931;-75
2022/05/18 07:36:51;;;;;;;;;;;25.30;90.50;;;;;;5054697;28;19909;-73
2022/05/18 07:39:17;;;;;;;;;;;25.40;86.00;;;;;;5054802;28;20312;-73
2022/05/18 07:41:43;;;;;;;;;;;25.50;89.90;;;;;;5053980;28;19933;-74
2022/05/18 07:44:09;;;;;;;;;;;26.40;82.80;;;;;;5053705;28;19936;-73
2022/05/18 07:46:35;;;;;;;;;;;26.10;84.60;;;;;;5054285;28;20344;-75
2022/05/18 07:49:02;;;;;;;;;;;25.70;84.40;;;;;;5054079;28;19955;-73
2022/05/18 07:51:28;;;;;;;;;;;25.70;84.20;;;;;;5056132;28;19908;-73
2022/05/18 07:53:54;;;;;;;;;;;25.80;83.90;;;;;;5072270;28;19931;-75
2022/05/18 07:56:19;;;;;;;;;;;26.00;84.80;;;;;;5064656;28;19995;-74
2022/05/18 07:58:45;;;;;;;;;;;26.50;82.00;;;;;;5054813;28;19917;-74
2022/05/18 08:01:11;;;;;;;;;;;26.40;83.40;;;;;;5055070;28;19912;-76
2022/05/18 08:03:37;;;;;;;;;;;26.40;78.90;;;;;;5054646;28;20362;-73
2022/05/18 08:06:03;;;;;;;;;;;27.40;80.60;;;;;;5055565;28;19909;-73
2022/05/18 08:08:30;;;;;;;;;;;27.20;79.50;;;;;;5055309;28;19909;-73
2022/05/18 08:16:26;;;;;;;;;;;25.80;74.70;;;;;;5055569;28;19954;-73
2022/05/18 08:18:52;;;;;;;;;;;26.90;77.40;;;;;;5072121;28;19912;-75
2022/05/18 08:21:18;;;;;;;;;;;27.20;76.00;;;;;;5074096;28;19915;-76
2022/05/18 08:23:44;;;;;;;;;;;27.70;73.80;;;;;;5073325;28;19995;-73
2022/05/18 08:26:10;;;;;;;;;;;27.30;76.00;;;;;;5074721;28;19973;-73
2022/05/18 08:28:37;;;;;;;;;;;28.00;72.90;;;;;;5074447;28;19917;-73
2022/05/18 08:31:03;;;;;;;;;;;28.20;74.30;;;;;;5074370;28;19931;-73
2022/05/18 08:33:31;;;;;;;;;;;28.10;71.30;;;;;;5071614;28;20011;-73
2022/05/18 08:36:00;;;;;;;;;;;28.30;73.90;;;;;;5062677;28;20274;-73
2022/05/18 08:38:26;;;;;;;;;;;28.60;74.50;;;;;;5054001;28;20007;-75
2022/05/18 08:40:57;;;;;;;;;;;28.20;70.20;;;;;;5054531;28;19931;-75
2022/05/18 08:43:28;;;;;;;;;;;28.70;73.10;;;;;;5053129;28;19909;-73
2022/05/18 08:46:13;;;;;;;;;;;29.20;69.80;;;;;;5054526;28;19909;-77
2022/05/18 08:48:44;;;;;;;;;;;29.90;70.20;;;;;;5055100;28;19996;-73
2022/05/18 08:51:19;;;;;;;;;;;30.00;73.20;;;;;;5054723;28;19956;-73
2022/05/18 08:54:01;;;;;;;;;;;29.70;66.60;;;;;;5053519;28;19913;-75
2022/05/18 08:56:32;;;;;;;;;;;29.20;68.00;;;;;;5054464;28;19908;-75
2022/05/18 08:58:59;;;;;;;;;;;29.60;74.60;;;;;;5054678;28;20309;-73
2022/05/18 09:01:45;;;;;;;;;;;29.70;64.70;;;;;;5054069;28;20265;-74
2022/05/18 09:04:15;;;;;;;;;;;30.50;66.10;;;;;;5055405;28;20406;-73
2022/05/18 09:06:53;;;;;;;;;;;29.90;62.30;;;;;;5066640;28;19908;-76
2022/05/18 09:12:09;;;;;;;;;;;29.50;61.90;;;;;;5065880;28;19915;-74
2022/05/18 09:14:39;;;;;;;;;;;30.20;66.60;;;;;;5053401;28;19913;-75
2022/05/18 09:17:05;;;;;;;;;;;30.00;66.30;;;;;;5060100;28;19912;-75
2022/05/18 09:20:07;;;;;;;;;;;29.60;68.00;;;;;;5074092;28;19909;-74
2022/05/18 09:22:33;;;;;;;;;;;29.30;65.30;;;;;;5053345;28;19908;-75
2022/05/18 09:25:11;;;;;;;;;;;29.50;62.40;;;;;;5047625;28;19999;-73
2022/05/18 09:27:51;;;;;;;;;;;30.20;64.60;;;;;;5052410;28;19909;-74
2022/05/18 09:30:28;;;;;;;;;;;30.40;63.40;;;;;;5053948;28;19909;-73
2022/05/18 09:33:01;;;;;;;;;;;29.40;60.70;;;;;;5053349;28;19909;-73
2022/05/18 09:35:36;;;;;;;;;;;28.80;60.30;;;;;;5051993;28;20114;-73
2022/05/18 09:38:08;;;;;;;;;;;28.70;67.20;;;;;;5052781;28;19959;-74
2022/05/18 09:40:38;;;;;;;;;;;28.40;62.60;;;;;;5057259;28;19966;-74
2022/05/18 09:43:15;;;;;;;;;;;29.50;67.80;;;;;;5057364;28;20022;-74
2022/05/18 09:45:45;;;;;;;;;;;30.40;63.30;;;;;;5051897;28;19909;-73
2022/05/18 09:48:13;;;;;;;;;;;30.30;63.00;;;;;;5072426;28;20062;-74
2022/05/18 09:50:42;;;;;;;;;;;30.20;59.90;;;;;;5059153;28;19920;-73
2022/05/18 09:53:08;;;;;;;;;;;30.70;63.10;;;;;;5064645;28;19908;-74
2022/05/18 09:55:34;;;;;;;;;;;30.10;66.90;;;;;;5045856;28;19977;-74
2022/05/18 09:58:02;;;;;;;;;;;30.90;60.00;;;;;;5051850;28;20451;-73
2022/05/18 10:00:29;;;;;;;;;;;29.70;56.40;;;;;;5045694;28;20318;-74
2022/05/18 10:08:31;;;;;;;;;;;29.60;61.20;;;;;;5052952;28;20012;-74
2022/05/18 10:11:05;;;;;;;;;;;28.70;62.80;;;;;;5053166;28;19963;-73
2022/05/18 10:13:33;;;;;;;;;;;29.40;69.70;;;;;;5050896;28;19916;-74
2022/05/18 10:16:01;;;;;;;;;;;30.10;66.50;;;;;;5052602;28;19913;-73
2022/05/18 10:18:41;;;;;;;;;;;30.40;63.30;;;;;;5058845;28;19912;-73
2022/05/18 10:21:20;;;;;;;;;;;30.70;67.10;;;;;;5062020;28;19914;-73
2022/05/18 10:23:52;;;;;;;;;;;29.10;60.70;;;;;;5058709;28;19917;-73
2022/05/18 10:26:41;;;;;;;;;;;29.70;65.60;;;;;;5059057;28;19913;-72
2022/05/18 10:29:19;;;;;;;;;;;29.80;62.10;;;;;;5065511;28;19913;-76
2022/05/18 10:32:00;;;;;;;;;;;29.40;61.70;;;;;;5046988;28;19955;-73
2022/05/18 10:34:32;;;;;;;;;;;29.50;60.90;;;;;;5068196;28;19908;-73
2022/05/18 10:37:00;;;;;;;;;;;29.90;60.20;;;;;;5055593;28;19932;-73
2022/05/18 10:39:28;;;;;;;;;;;29.00;60.80;;;;;;5052170;28;19939;-72
2022/05/18 10:41:54;;;;;;;;;;;28.40;62.90;;;;;;5063988;28;19909;-73
2022/05/18 10:44:21;;;;;;;;;;;28.70;67.90;;;;;;5051355;28;19909;-73
2022/05/18 10:46:49;;;;;;;;;;;30.20;60.60;;;;;;5060390;28;19916;-73
2022/05/18 10:49:21;;;;;;;;;;;29.40;64.80;;;;;;5055447;28;20007;-73
2022/05/18 10:51:46;;;;;;;;;;;29.80;64.70;;;;;;5072439;28;19995;-73
2022/05/18 10:54:15;;;;;;;;;;;30.40;58.90;;;;;;5073717;28;20326;-73
2022/05/18 10:56:41;;;;;;;;;;;30.70;61.40;;;;;;5058237;28;19909;-73
2022/05/18 10:59:26;;;;;;;;;;;30.60;64.00;;;;;;5055988;28;19920;-73
2022/05/18 11:01:57;;;;;;;;;;;30.60;63.90;;;;;;5050314;28;19909;-73
2022/05/18 11:04:27;;;;;;;;;;;31.20;63.60;;;;;;5053416;28;20081;-73
2022/05/18 11:06:53;;;;;;;;;;;30.80;64.60;;;;;;5055666;28;20333;-73
2022/05/18 11:09:20;;;;;;;;;;;30.70;62.90;;;;;;5055336;28;20019;-73
2022/05/18 11:12:00;;;;;;;;;;;30.20;62.40;;;;;;5054535;28;20366;-74
2022/05/18 11:14:25;;;;;;;;;;;30.80;63.50;;;;;;5053727;28;19916;-75
2022/05/18 11:17:06;;;;;;;;;;;30.80;59.50;;;;;;5054608;28;19908;-73
2022/05/18 11:19:49;;;;;;;;;;;30.70;60.90;;;;;;5054425;28;20443;-73
2022/05/18 11:22:34;;;;;;;;;;;30.00;60.30;;;;;;5054072;28;20288;-73
2022/05/18 11:25:13;;;;;;;;;;;29.90;58.50;;;;;;5053876;28;19909;-73
2022/05/18 11:27:48;;;;;;;;;;;30.20;57.10;;;;;;5054534;28;20346;-72
2022/05/18 11:30:17;;;;;;;;;;;30.60;58.00;;;;;;5054011;28;19908;-74
2022/05/18 11:32:45;;;;;;;;;;;30.30;62.50;;;;;;5053273;28;19967;-73
2022/05/18 11:35:20;;;;;;;;;;;30.10;58.30;;;;;;5053574;28;19935;-74
2022/05/18 11:38:10;;;;;;;;;;;30.10;57.20;;;;;;5054095;28;20031;-73
2022/05/18 11:41:00;;;;;;;;;;;30.70;57.20;;;;;;5054460;28;19908;-74
2022/05/18 11:43:33;;;;;;;;;;;29.80;56.60;;;;;;5052942;28;19909;-74
2022/05/18 11:46:10;;;;;;;;;;;29.70;58.80;;;;;;5059234;28;19915;-73
2022/05/18 11:48:39;;;;;;;;;;;29.80;57.10;;;;;;5074834;28;20011;-73
2022/05/18 11:51:15;;;;;;;;;;;29.60;57.70;;;;;;5054655;28;19919;-74
2022/05/18 11:53:59;;;;;;;;;;;30.00;61.50;;;;;;5052491;28;20246;-73
2022/05/18 11:56:36;;;;;;;;;;;29.80;56.60;;;;;;5058479;28;19908;-76
2022/05/18 11:59:45;;;;;;;;;;;30.40;60.50;;;;;;5054322;28;19958;-72
2022/05/18 12:02:16;;;;;;;;;;;30.40;61.30;;;;;;5052346;28;19951;-75
2022/05/18 12:05:13;;;;;;;;;;;30.70;58.20;;;;;;5063989;28;20003;-73
2022/05/18 12:07:43;;;;;;;;;;;30.20;58.60;;;;;;5070930;28;20315;-74
2022/05/18 12:10:22;;;;;;;;;;;29.40;55.90;;;;;;5072246;28;19908;-74
2022/05/18 12:12:51;;;;;;;;;;;30.30;55.00;;;;;;5059596;28;19966;-73
2022/05/18 12:15:39;;;;;;;;;;;29.80;51.50;;;;;;5052501;28;19908;-73
2022/05/18 12:18:06;;;;;;;;;;;30.40;61.20;;;;;;5049725;28;19913;-72
2022/05/18 12:20:45;;;;;;;;;;;29.30;51.80;;;;;;5053594;28;20425;-74
2022/05/18 12:23:12;;;;;;;;;;;30.00;53.90;;;;;;5051628;28;19916;-72
2022/05/18 12:25:38;;;;;;;;;;;31.40;55.10;;;;;;5052881;28;20401;-73
2022/05/18 12:28:05;;;;;;;;;;;32.60;47.90;;;;;;5052964;28;19909;-74
2022/05/18 12:30:33;;;;;;;;;;;32.70;46.80;;;;;;5052782;28;20286;-73
2022/05/18 12:32:59;;;;;;;;;;;33.80;45.40;;;;;;5052198;28;20290;-73
2022/05/18 12:35:30;;;;;;;;;;;33.80;42.60;;;;;;5051609;28;19975;-73
2022/05/18 12:38:04;;;;;;;;;;;34.70;43.30;;;;;;5052517;28;19917;-73
2022/05/18 12:40:32;;;;;;;;;;;34.60;44.10;;;;;;5052272;28;19916;-74
2022/05/18 12:43:04;;;;;;;;;;;34.70;44.10;;;;;;5051412;28;19920;-74
2022/05/18 12:45:31;;;;;;;;;;;34.00;44.50;;;;;;5051975;28;20313;-73
2022/05/18 12:48:15;;;;;;;;;;;34.50;41.30;;;;;;5052155;28;19920;-73
2022/05/18 12:50:51;;;;;;;;;;;35.20;41.00;;;;;;5052235;28;20003;-73
2022/05/18 12:53:23;;;;;;;;;;;35.90;43.70;;;;;;5050969;28;19952;-73
2022/05/18 12:56:09;;;;;;;;;;;37.00;41.90;;;;;;5052271;28;19908;-73
2022/05/18 12:58:36;;;;;;;;;;;35.60;42.80;;;;;;5052303;28;19920;-73
2022/05/18 13:01:12;;;;;;;;;;;34.60;43.00;;;;;;5052236;28;20277;-73
2022/05/18 13:03:48;;;;;;;;;;;35.70;40.40;;;;;;5051088;28;20410;-73
2022/05/18 13:06:22;;;;;;;;;;;35.40;41.10;;;;;;5052223;28;19916;-74
2022/05/18 13:08:54;;;;;;;;;;;34.50;41.90;;;;;;5051027;28;19913;-74
2022/05/18 13:11:20;;;;;;;;;;;35.20;42.20;;;;;;5045900;28;19913;-73
2022/05/18 13:14:11;;;;;;;;;;;34.70;40.90;;;;;;5050661;28;19916;-74
2022/05/18 13:16:37;;;;;;;;;;;33.50;41.40;;;;;;5049115;28;20018;-73
2022/05/18 13:19:11;;;;;;;;;;;34.90;42.40;;;;;;5051583;28;19952;-73
2022/05/18 13:21:38;;;;;;;;;;;36.60;41.50;;;;;;5051371;28;19960;-73
2022/05/18 13:24:05;;;;;;;;;;;37.00;39.70;;;;;;5049391;28;19908;-73
2022/05/18 13:26:43;;;;;;;;;;;35.80;39.70;;;;;;5051796;28;19943;-73
2022/05/18 13:29:11;;;;;;;;;;;36.10;38.90;;;;;;5051564;28;20370;-74
2022/05/18 13:31:37;;;;;;;;;;;35.60;42.10;;;;;;5050947;28;20431;-74
2022/05/18 13:34:14;;;;;;;;;;;35.50;40.40;;;;;;5051007;28;19909;-74
2022/05/18 13:36:51;;;;;;;;;;;35.90;41.90;;;;;;5051805;28;19915;-74
2022/05/18 13:39:18;;;;;;;;;;;36.10;39.40;;;;;;5051283;28;19913;-76
2022/05/18 13:41:45;;;;;;;;;;;35.20;46.00;;;;;;5050873;28;19919;-74
2022/05/18 13:44:11;;;;;;;;;;;35.60;43.90;;;;;;5050357;28;20413;-75
2022/05/18 13:46:36;;;;;;;;;;;35.40;38.20;;;;;;5051275;28;19963;-74
2022/05/18 13:49:06;;;;;;;;;;;35.30;42.30;;;;;;5052222;28;19916;-74
2022/05/18 13:51:34;;;;;;;;;;;34.00;40.70;;;;;;5051032;28;19909;-75
2022/05/18 13:54:08;;;;;;;;;;;34.50;42.60;;;;;;5050183;28;20351;-74
2022/05/18 13:56:35;;;;;;;;;;;34.50;42.80;;;;;;5051047;28;20358;-74
2022/05/18 13:59:03;;;;;;;;;;;34.40;42.90;;;;;;5051002;28;19913;-74
2022/05/18 14:01:31;;;;;;;;;;;35.10;40.70;;;;;;5050852;28;19913;-74
2022/05/18 14:03:57;;;;;;;;;;;34.20;41.60;;;;;;5050419;28;20366;-74
2022/05/18 14:06:23;;;;;;;;;;;34.40;39.20;;;;;;5051143;28;19909;-74
2022/05/18 14:08:50;;;;;;;;;;;35.40;42.30;;;;;;5050904;28;19913;-74
2022/05/18 14:11:16;;;;;;;;;;;36.50;40.00;;;;;;5050528;28;19909;-75
2022/05/18 14:13:42;;;;;;;;;;;36.30;39.80;;;;;;5049938;28;20317;-74
2022/05/18 14:16:08;;;;;;;;;;;36.50;37.80;;;;;;5051013;28;20046;-74
2022/05/18 14:18:36;;;;;;;;;;;35.90;43.00;;;;;;5050878;28;19966;-75
2022/05/18 14:21:06;;;;;;;;;;;34.40;40.00;;;;;;5051996;28;19931;-74
2022/05/18 14:23:34;;;;;;;;;;;33.70;43.80;;;;;;5053646;28;20068;-74
2022/05/18 14:26:02;;;;;;;;;;;34.00;44.90;;;;;;5055006;28;19909;-74
2022/05/18 14:28:30;;;;;;;;;;;35.50;46.20;;;;;;5054995;28;19992;-74
2022/05/18 14:30:56;;;;;;;;;;;35.90;43.30;;;;;;5054852;28;19913;-73
2022/05/18 14:33:43;;;;;;;;;;;35.10;41.10;;;;;;5053412;28;19909;-73
2022/05/18 14:36:15;;;;;;;;;;;35.10;40.50;;;;;;5054453;28;19909;-73
2022/05/18 14:38:44;;;;;;;;;;;33.80;41.60;;;;;;5054536;28;20007;-73
2022/05/18 14:41:11;;;;;;;;;;;33.10;43.00;;;;;;5054503;28;19915;-72
2022/05/18 14:43:37;;;;;;;;;;;33.30;44.20;;;;;;5053066;28;20303;-73
2022/05/18 14:46:11;;;;;;;;;;;33.30;41.50;;;;;;5054318;28;20011;-72
2022/05/18 14:48:49;;;;;;;;;;;33.10;44.00;;;;;;5054080;28;19919;-75
2022/05/18 14:51:18;;;;;;;;;;;34.00;42.70;;;;;;5054047;28;19940;-73